sensor_id;sensor_type;location;lat;lon;timestamp;P1;durP1;ratioP1;P2;durP2;ratioP2
19951;SDS011;10137;49.406;19.484;2023-04-24T00:01:36;21.57;;;12.57;;
19951;SDS011;10137;49.406;19.484;2023-04-24T00:04:07;22.83;;;13.00;;
19951;SDS011;10137;49.406;19.484;2023-04-24T00:06:37;23.13;;;13.33;;
19951;SDS011;10137;49.406;19.484;2023-04-24T00:09:09;25.83;;;14.37;;
19951;SDS011;10137;49.406;19.484;2023-04-24T00:11:38;26.00;;;15.47;;
19951;SDS011;10137;49.406;19.484;2023-04-24T00:14:09;35.10;;;18.77;;
19951;SDS011;10137;49.406;19.484;2023-04-24T00:16:37;38.93;;;20.20;;
19951;SDS011;10137;49.406;19.484;2023-04-24T00:19:07;37.40;;;19.90;;
19951;SDS011;10137;49.406;19.484;2023-04-24T00:21:35;43.57;;;20.17;;
19951;SDS011;10137;49.406;19.484;2023-04-24T00:24:04;44.10;;;22.97;;
19951;SDS011;10137;49.406;19.484;2023-04-24T00:26:32;37.93;;;19.60;;
19951;SDS011;10137;49.406;19.484;2023-04-24T00:28:59;32.50;;;18.40;;
19951;SDS011;10137;49.406;19.484;2023-04-24T00:31:27;34.00;;;19.20;;
19951;SDS011;10137;49.406;19.484;2023-04-24T00:33:57;33.43;;;17.77;;
19951;SDS011;10137;49.406;19.484;2023-04-24T00:36:27;29.23;;;17.13;;
19951;SDS011;10137;49.406;19.484;2023-04-24T00:38:55;32.60;;;17.57;;
19951;SDS011;10137;49.406;19.484;2023-04-24T00:41:24;33.30;;;17.30;;
19951;SDS011;10137;49.406;19.484;2023-04-24T00:43:53;35.07;;;16.80;;
19951;SDS011;10137;49.406;19.484;2023-04-24T00:46:21;29.30;;;16.93;;
19951;SDS011;10137;49.406;19.484;2023-04-24T00:48:49;28.40;;;16.73;;
19951;SDS011;10137;49.406;19.484;2023-04-24T00:51:17;29.70;;;15.73;;
19951;SDS011;10137;49.406;19.484;2023-04-24T00:53:46;25.07;;;14.73;;
19951;SDS011;10137;49.406;19.484;2023-04-24T00:56:17;23.50;;;13.83;;
19951;SDS011;10137;49.406;19.484;2023-04-24T00:58:46;26.03;;;15.30;;
19951;SDS011;10137;49.406;19.484;2023-04-24T01:01:14;22.40;;;13.23;;
19951;SDS011;10137;49.406;19.484;2023-04-24T01:03:43;19.97;;;12.37;;
19951;SDS011;10137;49.406;19.484;2023-04-24T01:06:12;22.20;;;14.40;;
19951;SDS011;10137;49.406;19.484;2023-04-24T01:08:41;28.37;;;15.80;;
19951;SDS011;10137;49.406;19.484;2023-04-24T01:11:10;21.03;;;13.50;;
19951;SDS011;10137;49.406;19.484;2023-04-24T01:13:38;28.93;;;17.13;;
19951;SDS011;10137;49.406;19.484;2023-04-24T01:16:06;26.90;;;14.80;;
19951;SDS011;10137;49.406;19.484;2023-04-24T01:18:34;22.43;;;13.57;;
19951;SDS011;10137;49.406;19.484;2023-04-24T01:21:03;30.30;;;16.07;;
19951;SDS011;10137;49.406;19.484;2023-04-24T01:23:33;39.00;;;18.03;;
19951;SDS011;10137;49.406;19.484;2023-04-24T01:26:01;31.23;;;19.20;;
19951;SDS011;10137;49.406;19.484;2023-04-24T01:28:32;32.73;;;17.13;;
19951;SDS011;10137;49.406;19.484;2023-04-24T01:31:00;35.27;;;19.17;;
19951;SDS011;10137;49.406;19.484;2023-04-24T01:33:29;27.87;;;18.07;;
19951;SDS011;10137;49.406;19.484;2023-04-24T01:35:56;35.87;;;18.77;;
19951;SDS011;10137;49.406;19.484;2023-04-24T01:38:24;25.37;;;15.20;;
19951;SDS011;10137;49.406;19.484;2023-04-24T01:40:53;24.17;;;14.13;;
19951;SDS011;10137;49.406;19.484;2023-04-24T01:43:20;24.40;;;13.97;;
19951;SDS011;10137;49.406;19.484;2023-04-24T01:45:49;27.93;;;14.53;;
19951;SDS011;10137;49.406;19.484;2023-04-24T01:48:17;24.97;;;15.50;;
19951;SDS011;10137;49.406;19.484;2023-04-24T01:50:46;26.43;;;15.47;;
19951;SDS011;10137;49.406;19.484;2023-04-24T01:53:13;26.43;;;15.27;;
19951;SDS011;10137;49.406;19.484;2023-04-24T01:55:40;29.20;;;16.40;;
19951;SDS011;10137;49.406;19.484;2023-04-24T01:58:08;24.30;;;14.50;;
19951;SDS011;10137;49.406;19.484;2023-04-24T02:00:36;25.40;;;14.47;;
19951;SDS011;10137;49.406;19.484;2023-04-24T02:03:04;24.10;;;13.00;;
19951;SDS011;10137;49.406;19.484;2023-04-24T02:05:32;18.67;;;11.90;;
19951;SDS011;10137;49.406;19.484;2023-04-24T02:08:00;17.57;;;12.30;;
19951;SDS011;10137;49.406;19.484;2023-04-24T02:10:29;22.37;;;12.90;;
19951;SDS011;10137;49.406;19.484;2023-04-24T02:12:57;20.20;;;13.47;;
19951;SDS011;10137;49.406;19.484;2023-04-24T02:15:27;20.63;;;13.00;;
19951;SDS011;10137;49.406;19.484;2023-04-24T02:17:55;28.73;;;14.67;;
19951;SDS011;10137;49.406;19.484;2023-04-24T02:20:23;24.10;;;12.53;;
19951;SDS011;10137;49.406;19.484;2023-04-24T02:22:50;21.60;;;13.13;;
19951;SDS011;10137;49.406;19.484;2023-04-24T02:25:18;21.67;;;13.03;;
19951;SDS011;10137;49.406;19.484;2023-04-24T02:27:47;25.10;;;13.93;;
19951;SDS011;10137;49.406;19.484;2023-04-24T02:30:15;22.80;;;13.33;;
19951;SDS011;10137;49.406;19.484;2023-04-24T02:32:44;21.67;;;12.97;;
19951;SDS011;10137;49.406;19.484;2023-04-24T02:35:11;19.87;;;12.43;;
19951;SDS011;10137;49.406;19.484;2023-04-24T02:37:40;21.70;;;12.00;;
19951;SDS011;10137;49.406;19.484;2023-04-24T02:40:09;21.87;;;12.90;;
19951;SDS011;10137;49.406;19.484;2023-04-24T02:42:39;17.17;;;10.83;;
19951;SDS011;10137;49.406;19.484;2023-04-24T02:45:07;17.93;;;11.30;;
19951;SDS011;10137;49.406;19.484;2023-04-24T02:47:36;20.13;;;10.93;;
19951;SDS011;10137;49.406;19.484;2023-04-24T02:50:06;21.03;;;11.13;;
19951;SDS011;10137;49.406;19.484;2023-04-24T02:52:36;19.97;;;11.27;;
19951;SDS011;10137;49.406;19.484;2023-04-24T02:55:05;19.20;;;10.87;;
19951;SDS011;10137;49.406;19.484;2023-04-24T02:57:34;23.07;;;10.97;;
19951;SDS011;10137;49.406;19.484;2023-04-24T03:00:02;19.37;;;12.13;;
19951;SDS011;10137;49.406;19.484;2023-04-24T03:02:33;17.97;;;10.87;;
19951;SDS011;10137;49.406;19.484;2023-04-24T03:05:01;15.63;;;10.27;;
19951;SDS011;10137;49.406;19.484;2023-04-24T03:07:32;17.87;;;10.20;;
19951;SDS011;10137;49.406;19.484;2023-04-24T03:10:00;20.07;;;10.93;;
19951;SDS011;10137;49.406;19.484;2023-04-24T03:12:28;19.13;;;10.93;;
19951;SDS011;10137;49.406;19.484;2023-04-24T03:14:56;19.80;;;11.47;;
19951;SDS011;10137;49.406;19.484;2023-04-24T03:17:25;23.63;;;12.70;;
19951;SDS011;10137;49.406;19.484;2023-04-24T03:19:52;18.07;;;11.07;;
19951;SDS011;10137;49.406;19.484;2023-04-24T03:22:24;16.60;;;10.03;;
19951;SDS011;10137;49.406;19.484;2023-04-24T03:24:57;22.13;;;10.30;;
19951;SDS011;10137;49.406;19.484;2023-04-24T03:27:25;15.97;;;9.57;;
19951;SDS011;10137;49.406;19.484;2023-04-24T03:29:54;26.10;;;9.90;;
19951;SDS011;10137;49.406;19.484;2023-04-24T03:32:22;21.40;;;9.57;;
19951;SDS011;10137;49.406;19.484;2023-04-24T03:34:50;15.57;;;9.50;;
19951;SDS011;10137;49.406;19.484;2023-04-24T03:37:19;19.63;;;10.63;;
19951;SDS011;10137;49.406;19.484;2023-04-24T03:39:47;26.43;;;14.87;;
19951;SDS011;10137;49.406;19.484;2023-04-24T03:42:17;23.23;;;13.43;;
19951;SDS011;10137;49.406;19.484;2023-04-24T03:44:45;24.90;;;13.27;;
19951;SDS011;10137;49.406;19.484;2023-04-24T03:47:13;25.70;;;12.30;;
19951;SDS011;10137;49.406;19.484;2023-04-24T03:49:41;35.90;;;13.50;;
19951;SDS011;10137;49.406;19.484;2023-04-24T03:52:10;31.63;;;12.63;;
19951;SDS011;10137;49.406;19.484;2023-04-24T03:54:38;19.77;;;10.60;;
19951;SDS011;10137;49.406;19.484;2023-04-24T03:57:06;19.43;;;11.67;;
19951;SDS011;10137;49.406;19.484;2023-04-24T03:59:35;20.93;;;10.87;;
19951;SDS011;10137;49.406;19.484;2023-04-24T04:02:04;16.03;;;10.13;;
19951;SDS011;10137;49.406;19.484;2023-04-24T04:04:32;32.13;;;11.80;;
19951;SDS011;10137;49.406;19.484;2023-04-24T04:07:00;28.53;;;14.03;;
19951;SDS011;10137;49.406;19.484;2023-04-24T04:09:29;22.97;;;11.77;;
19951;SDS011;10137;49.406;19.484;2023-04-24T04:11:57;27.17;;;12.80;;
19951;SDS011;10137;49.406;19.484;2023-04-24T04:14:25;30.10;;;13.77;;
19951;SDS011;10137;49.406;19.484;2023-04-24T04:16:56;32.33;;;17.53;;
19951;SDS011;10137;49.406;19.484;2023-04-24T04:19:23;43.93;;;21.57;;
19951;SDS011;10137;49.406;19.484;2023-04-24T04:21:53;47.87;;;22.00;;
19951;SDS011;10137;49.406;19.484;2023-04-24T04:24:21;46.33;;;20.83;;
19951;SDS011;10137;49.406;19.484;2023-04-24T04:26:50;54.17;;;26.27;;
19951;SDS011;10137;49.406;19.484;2023-04-24T04:29:22;66.03;;;25.40;;
19951;SDS011;10137;49.406;19.484;2023-04-24T04:31:52;32.93;;;16.27;;
19951;SDS011;10137;49.406;19.484;2023-04-24T04:34:22;39.10;;;19.13;;
19951;SDS011;10137;49.406;19.484;2023-04-24T04:36:49;50.57;;;21.33;;
19951;SDS011;10137;49.406;19.484;2023-04-24T04:39:16;37.40;;;18.37;;
19951;SDS011;10137;49.406;19.484;2023-04-24T04:41:48;30.33;;;14.27;;
19951;SDS011;10137;49.406;19.484;2023-04-24T04:44:17;21.73;;;13.63;;
19951;SDS011;10137;49.406;19.484;2023-04-24T04:46:45;22.80;;;11.27;;
19951;SDS011;10137;49.406;19.484;2023-04-24T04:49:14;17.37;;;10.00;;
19951;SDS011;10137;49.406;19.484;2023-04-24T04:51:44;16.43;;;8.87;;
19951;SDS011;10137;49.406;19.484;2023-04-24T04:54:13;21.73;;;8.53;;
19951;SDS011;10137;49.406;19.484;2023-04-24T04:56:43;17.67;;;10.33;;
19951;SDS011;10137;49.406;19.484;2023-04-24T04:59:12;19.60;;;11.17;;
19951;SDS011;10137;49.406;19.484;2023-04-24T05:01:40;19.03;;;10.03;;
19951;SDS011;10137;49.406;19.484;2023-04-24T05:04:08;18.13;;;9.67;;
19951;SDS011;10137;49.406;19.484;2023-04-24T05:06:36;17.97;;;9.73;;
19951;SDS011;10137;49.406;19.484;2023-04-24T05:09:09;17.30;;;9.30;;
19951;SDS011;10137;49.406;19.484;2023-04-24T05:11:37;19.13;;;10.37;;
19951;SDS011;10137;49.406;19.484;2023-04-24T05:14:06;20.93;;;10.47;;
19951;SDS011;10137;49.406;19.484;2023-04-24T05:16:35;17.60;;;9.10;;
19951;SDS011;10137;49.406;19.484;2023-04-24T05:19:03;20.50;;;9.40;;
19951;SDS011;10137;49.406;19.484;2023-04-24T05:21:30;14.53;;;9.00;;
19951;SDS011;10137;49.406;19.484;2023-04-24T05:23:58;19.97;;;8.67;;
19951;SDS011;10137;49.406;19.484;2023-04-24T05:26:31;19.63;;;8.40;;
19951;SDS011;10137;49.406;19.484;2023-04-24T05:28:57;13.73;;;8.83;;
19951;SDS011;10137;49.406;19.484;2023-04-24T05:31:25;18.13;;;9.77;;
19951;SDS011;10137;49.406;19.484;2023-04-24T05:33:52;16.83;;;8.70;;
19951;SDS011;10137;49.406;19.484;2023-04-24T05:36:19;14.20;;;9.17;;
19951;SDS011;10137;49.406;19.484;2023-04-24T05:38:46;15.40;;;9.50;;
19951;SDS011;10137;49.406;19.484;2023-04-24T05:41:14;14.53;;;9.03;;
19951;SDS011;10137;49.406;19.484;2023-04-24T05:43:42;17.47;;;9.43;;
19951;SDS011;10137;49.406;19.484;2023-04-24T05:46:10;13.33;;;9.43;;
19951;SDS011;10137;49.406;19.484;2023-04-24T05:48:39;16.30;;;9.67;;
19951;SDS011;10137;49.406;19.484;2023-04-24T05:51:07;17.10;;;8.27;;
19951;SDS011;10137;49.406;19.484;2023-04-24T05:53:36;17.53;;;9.53;;
19951;SDS011;10137;49.406;19.484;2023-04-24T05:56:04;15.03;;;9.13;;
19951;SDS011;10137;49.406;19.484;2023-04-24T05:58:32;23.77;;;9.27;;
19951;SDS011;10137;49.406;19.484;2023-04-24T06:01:02;17.13;;;9.00;;
19951;SDS011;10137;49.406;19.484;2023-04-24T06:03:31;13.73;;;9.03;;
19951;SDS011;10137;49.406;19.484;2023-04-24T06:06:00;30.60;;;9.87;;
19951;SDS011;10137;49.406;19.484;2023-04-24T06:08:28;19.53;;;9.10;;
19951;SDS011;10137;49.406;19.484;2023-04-24T06:10:56;16.13;;;8.67;;
19951;SDS011;10137;49.406;19.484;2023-04-24T06:13:25;28.23;;;9.87;;
19951;SDS011;10137;49.406;19.484;2023-04-24T06:15:53;22.33;;;8.97;;
19951;SDS011;10137;49.406;19.484;2023-04-24T06:18:23;13.83;;;8.30;;
19951;SDS011;10137;49.406;19.484;2023-04-24T06:20:51;17.20;;;8.90;;
19951;SDS011;10137;49.406;19.484;2023-04-24T06:23:19;15.10;;;9.43;;
19951;SDS011;10137;49.406;19.484;2023-04-24T06:25:48;17.27;;;8.87;;
19951;SDS011;10137;49.406;19.484;2023-04-24T06:28:15;21.43;;;10.57;;
19951;SDS011;10137;49.406;19.484;2023-04-24T06:30:42;23.97;;;9.67;;
19951;SDS011;10137;49.406;19.484;2023-04-24T06:33:09;16.93;;;9.33;;
19951;SDS011;10137;49.406;19.484;2023-04-24T06:35:38;17.20;;;10.00;;
19951;SDS011;10137;49.406;19.484;2023-04-24T06:38:05;21.57;;;8.90;;
19951;SDS011;10137;49.406;19.484;2023-04-24T06:40:32;14.97;;;9.50;;
19951;SDS011;10137;49.406;19.484;2023-04-24T06:42:59;16.23;;;9.30;;
19951;SDS011;10137;49.406;19.484;2023-04-24T06:45:27;14.63;;;8.83;;
19951;SDS011;10137;49.406;19.484;2023-04-24T06:47:55;20.63;;;14.37;;
19951;SDS011;10137;49.406;19.484;2023-04-24T06:50:22;21.23;;;13.13;;
19951;SDS011;10137;49.406;19.484;2023-04-24T06:52:51;23.10;;;12.10;;
19951;SDS011;10137;49.406;19.484;2023-04-24T06:55:18;20.87;;;10.77;;
19951;SDS011;10137;49.406;19.484;2023-04-24T06:57:45;13.77;;;9.67;;
19951;SDS011;10137;49.406;19.484;2023-04-24T07:00:12;16.33;;;10.40;;
19951;SDS011;10137;49.406;19.484;2023-04-24T07:02:40;13.67;;;9.50;;
19951;SDS011;10137;49.406;19.484;2023-04-24T07:05:07;18.90;;;9.87;;
19951;SDS011;10137;49.406;19.484;2023-04-24T07:07:34;15.53;;;9.57;;
19951;SDS011;10137;49.406;19.484;2023-04-24T07:10:05;28.20;;;9.90;;
19951;SDS011;10137;49.406;19.484;2023-04-24T07:12:33;18.13;;;8.90;;
19951;SDS011;10137;49.406;19.484;2023-04-24T07:15:00;14.43;;;8.70;;
19951;SDS011;10137;49.406;19.484;2023-04-24T07:17:28;16.23;;;9.40;;
19951;SDS011;10137;49.406;19.484;2023-04-24T07:19:55;18.93;;;9.77;;
19951;SDS011;10137;49.406;19.484;2023-04-24T07:22:22;12.77;;;9.00;;
19951;SDS011;10137;49.406;19.484;2023-04-24T07:24:50;19.63;;;9.97;;
19951;SDS011;10137;49.406;19.484;2023-04-24T07:27:18;16.67;;;10.30;;
19951;SDS011;10137;49.406;19.484;2023-04-24T07:29:45;23.43;;;10.93;;
19951;SDS011;10137;49.406;19.484;2023-04-24T07:32:13;18.27;;;9.57;;
19951;SDS011;10137;49.406;19.484;2023-04-24T07:34:40;13.60;;;8.77;;
19951;SDS011;10137;49.406;19.484;2023-04-24T07:37:07;16.73;;;9.70;;
19951;SDS011;10137;49.406;19.484;2023-04-24T07:39:34;17.30;;;10.57;;
19951;SDS011;10137;49.406;19.484;2023-04-24T07:42:01;13.47;;;8.90;;
19951;SDS011;10137;49.406;19.484;2023-04-24T07:44:30;13.97;;;9.67;;
19951;SDS011;10137;49.406;19.484;2023-04-24T07:46:57;30.57;;;9.87;;
19951;SDS011;10137;49.406;19.484;2023-04-24T07:49:24;13.43;;;9.07;;
19951;SDS011;10137;49.406;19.484;2023-04-24T07:51:52;18.63;;;8.50;;
19951;SDS011;10137;49.406;19.484;2023-04-24T07:54:20;13.83;;;7.90;;
19951;SDS011;10137;49.406;19.484;2023-04-24T07:56:47;15.03;;;8.57;;
19951;SDS011;10137;49.406;19.484;2023-04-24T07:59:14;17.20;;;9.70;;
19951;SDS011;10137;49.406;19.484;2023-04-24T08:01:43;17.13;;;8.73;;
19951;SDS011;10137;49.406;19.484;2023-04-24T08:04:10;12.80;;;7.50;;
19951;SDS011;10137;49.406;19.484;2023-04-24T08:06:37;12.27;;;7.20;;
19951;SDS011;10137;49.406;19.484;2023-04-24T08:09:04;13.63;;;8.83;;
19951;SDS011;10137;49.406;19.484;2023-04-24T08:11:31;8.97;;;5.90;;
19951;SDS011;10137;49.406;19.484;2023-04-24T08:13:58;18.73;;;6.47;;
19951;SDS011;10137;49.406;19.484;2023-04-24T08:16:25;13.47;;;7.13;;
19951;SDS011;10137;49.406;19.484;2023-04-24T08:18:54;12.00;;;6.70;;
19951;SDS011;10137;49.406;19.484;2023-04-24T08:21:21;15.63;;;6.87;;
19951;SDS011;10137;49.406;19.484;2023-04-24T08:23:48;12.43;;;8.10;;
19951;SDS011;10137;49.406;19.484;2023-04-24T08:26:16;12.87;;;7.63;;
19951;SDS011;10137;49.406;19.484;2023-04-24T08:28:43;10.00;;;6.97;;
19951;SDS011;10137;49.406;19.484;2023-04-24T08:31:10;13.50;;;6.40;;
19951;SDS011;10137;49.406;19.484;2023-04-24T08:33:37;14.63;;;6.43;;
19951;SDS011;10137;49.406;19.484;2023-04-24T08:36:08;13.50;;;7.10;;
19951;SDS011;10137;49.406;19.484;2023-04-24T08:38:35;16.70;;;7.30;;
19951;SDS011;10137;49.406;19.484;2023-04-24T08:41:02;10.90;;;6.13;;
19951;SDS011;10137;49.406;19.484;2023-04-24T08:43:30;17.47;;;6.67;;
19951;SDS011;10137;49.406;19.484;2023-04-24T08:46:01;10.07;;;5.27;;
19951;SDS011;10137;49.406;19.484;2023-04-24T08:48:30;11.93;;;5.43;;
19951;SDS011;10137;49.406;19.484;2023-04-24T08:50:58;10.33;;;5.57;;
19951;SDS011;10137;49.406;19.484;2023-04-24T08:53:27;9.30;;;5.50;;
19951;SDS011;10137;49.406;19.484;2023-04-24T08:55:55;15.97;;;5.53;;
19951;SDS011;10137;49.406;19.484;2023-04-24T08:58:22;13.90;;;6.67;;
19951;SDS011;10137;49.406;19.484;2023-04-24T09:00:51;17.83;;;7.70;;
19951;SDS011;10137;49.406;19.484;2023-04-24T09:03:20;14.17;;;6.60;;
19951;SDS011;10137;49.406;19.484;2023-04-24T09:05:48;13.00;;;5.57;;
19951;SDS011;10137;49.406;19.484;2023-04-24T09:08:16;9.70;;;5.53;;
19951;SDS011;10137;49.406;19.484;2023-04-24T09:10:46;10.70;;;5.27;;
19951;SDS011;10137;49.406;19.484;2023-04-24T09:13:13;9.63;;;5.53;;
19951;SDS011;10137;49.406;19.484;2023-04-24T09:15:42;6.87;;;5.27;;
19951;SDS011;10137;49.406;19.484;2023-04-24T09:18:09;10.70;;;5.10;;
19951;SDS011;10137;49.406;19.484;2023-04-24T09:23:25;7.27;;;4.60;;
19951;SDS011;10137;49.406;19.484;2023-04-24T09:25:55;12.83;;;4.80;;
19951;SDS011;10137;49.406;19.484;2023-04-24T09:28:27;10.87;;;5.60;;
19951;SDS011;10137;49.406;19.484;2023-04-24T09:31:07;27.00;;;4.50;;
19951;SDS011;10137;49.406;19.484;2023-04-24T09:33:35;13.13;;;3.63;;
19951;SDS011;10137;49.406;19.484;2023-04-24T09:36:06;13.57;;;4.63;;
19951;SDS011;10137;49.406;19.484;2023-04-24T09:38:37;11.30;;;3.83;;
19951;SDS011;10137;49.406;19.484;2023-04-24T09:41:07;5.37;;;3.57;;
19951;SDS011;10137;49.406;19.484;2023-04-24T09:43:43;7.83;;;3.60;;
19951;SDS011;10137;49.406;19.484;2023-04-24T09:46:10;15.37;;;4.43;;
19951;SDS011;10137;49.406;19.484;2023-04-24T09:48:40;20.33;;;3.57;;
19951;SDS011;10137;49.406;19.484;2023-04-24T09:51:08;13.27;;;4.30;;
19951;SDS011;10137;49.406;19.484;2023-04-24T09:53:37;6.33;;;3.60;;
19951;SDS011;10137;49.406;19.484;2023-04-24T09:56:12;12.13;;;4.17;;
19951;SDS011;10137;49.406;19.484;2023-04-24T09:58:47;11.80;;;4.00;;
19951;SDS011;10137;49.406;19.484;2023-04-24T10:01:16;8.27;;;4.27;;
19951;SDS011;10137;49.406;19.484;2023-04-24T10:03:56;6.57;;;3.67;;
19951;SDS011;10137;49.406;19.484;2023-04-24T10:06:23;6.27;;;3.60;;
19951;SDS011;10137;49.406;19.484;2023-04-24T10:08:58;7.50;;;3.60;;
19951;SDS011;10137;49.406;19.484;2023-04-24T10:11:28;14.80;;;4.23;;
19951;SDS011;10137;49.406;19.484;2023-04-24T10:13:57;8.70;;;3.87;;
19951;SDS011;10137;49.406;19.484;2023-04-24T10:16:26;10.47;;;3.70;;
19951;SDS011;10137;49.406;19.484;2023-04-24T10:18:55;15.23;;;4.00;;
19951;SDS011;10137;49.406;19.484;2023-04-24T10:21:24;7.30;;;3.70;;
19951;SDS011;10137;49.406;19.484;2023-04-24T10:23:53;11.57;;;4.00;;
19951;SDS011;10137;49.406;19.484;2023-04-24T10:26:21;11.70;;;3.90;;
19951;SDS011;10137;49.406;19.484;2023-04-24T10:28:52;5.47;;;3.70;;
19951;SDS011;10137;49.406;19.484;2023-04-24T10:31:24;9.70;;;3.80;;
19951;SDS011;10137;49.406;19.484;2023-04-24T10:33:53;10.73;;;3.87;;
19951;SDS011;10137;49.406;19.484;2023-04-24T10:36:23;8.53;;;3.50;;
19951;SDS011;10137;49.406;19.484;2023-04-24T10:38:54;8.40;;;4.20;;
19951;SDS011;10137;49.406;19.484;2023-04-24T10:41:25;6.70;;;3.70;;
19951;SDS011;10137;49.406;19.484;2023-04-24T10:46:43;12.30;;;6.87;;
19951;SDS011;10137;49.406;19.484;2023-04-24T10:49:13;12.77;;;6.30;;
19951;SDS011;10137;49.406;19.484;2023-04-24T10:51:48;9.53;;;5.33;;
19951;SDS011;10137;49.406;19.484;2023-04-24T10:54:24;19.17;;;9.97;;
19951;SDS011;10137;49.406;19.484;2023-04-24T10:56:53;7.43;;;5.23;;
19951;SDS011;10137;49.406;19.484;2023-04-24T11:02:45;8.50;;;4.17;;
19951;SDS011;10137;49.406;19.484;2023-04-24T11:05:16;5.63;;;4.27;;
19951;SDS011;10137;49.406;19.484;2023-04-24T11:10:40;4.50;;;4.03;;
19951;SDS011;10137;49.406;19.484;2023-04-24T11:13:13;6.93;;;4.50;;
19951;SDS011;10137;49.406;19.484;2023-04-24T11:15:44;5.03;;;4.53;;
19951;SDS011;10137;49.406;19.484;2023-04-24T11:18:36;7.37;;;4.00;;
19951;SDS011;10137;49.406;19.484;2023-04-24T11:21:09;7.17;;;4.73;;
19951;SDS011;10137;49.406;19.484;2023-04-24T11:23:39;5.33;;;4.47;;
19951;SDS011;10137;49.406;19.484;2023-04-24T11:26:11;9.87;;;4.00;;
19951;SDS011;10137;49.406;19.484;2023-04-24T11:28:49;7.50;;;4.60;;
19951;SDS011;10137;49.406;19.484;2023-04-24T11:34:09;6.13;;;4.40;;
19951;SDS011;10137;49.406;19.484;2023-04-24T11:36:38;6.50;;;4.83;;
19951;SDS011;10137;49.406;19.484;2023-04-24T11:39:07;6.53;;;4.53;;
19951;SDS011;10137;49.406;19.484;2023-04-24T11:41:36;5.63;;;4.47;;
19951;SDS011;10137;49.406;19.484;2023-04-24T11:44:06;7.87;;;5.07;;
19951;SDS011;10137;49.406;19.484;2023-04-24T11:46:36;7.07;;;4.70;;
19951;SDS011;10137;49.406;19.484;2023-04-24T11:49:07;11.83;;;6.53;;
19951;SDS011;10137;49.406;19.484;2023-04-24T11:51:37;9.53;;;6.73;;
19951;SDS011;10137;49.406;19.484;2023-04-24T11:54:07;12.33;;;6.30;;
19951;SDS011;10137;49.406;19.484;2023-04-24T11:56:36;9.20;;;5.80;;
19951;SDS011;10137;49.406;19.484;2023-04-24T11:59:04;7.57;;;5.47;;
19951;SDS011;10137;49.406;19.484;2023-04-24T12:01:42;11.47;;;7.03;;
19951;SDS011;10137;49.406;19.484;2023-04-24T12:04:12;12.07;;;5.40;;
19951;SDS011;10137;49.406;19.484;2023-04-24T12:06:45;9.40;;;5.80;;
19951;SDS011;10137;49.406;19.484;2023-04-24T12:09:26;10.07;;;6.67;;
19951;SDS011;10137;49.406;19.484;2023-04-24T12:11:55;9.40;;;6.23;;
19951;SDS011;10137;49.406;19.484;2023-04-24T12:14:24;14.33;;;7.00;;
19951;SDS011;10137;49.406;19.484;2023-04-24T12:16:52;9.97;;;7.33;;
19951;SDS011;10137;49.406;19.484;2023-04-24T12:19:24;14.30;;;10.40;;
19951;SDS011;10137;49.406;19.484;2023-04-24T12:22:01;9.97;;;7.30;;
19951;SDS011;10137;49.406;19.484;2023-04-24T12:24:31;9.53;;;6.73;;
19951;SDS011;10137;49.406;19.484;2023-04-24T12:26:59;8.70;;;7.30;;
19951;SDS011;10137;49.406;19.484;2023-04-24T12:29:28;11.87;;;8.77;;
19951;SDS011;10137;49.406;19.484;2023-04-24T12:31:56;10.43;;;7.27;;
19951;SDS011;10137;49.406;19.484;2023-04-24T12:34:26;9.77;;;7.10;;
19951;SDS011;10137;49.406;19.484;2023-04-24T12:37:09;13.40;;;6.53;;
19951;SDS011;10137;49.406;19.484;2023-04-24T12:39:44;9.40;;;6.00;;
19951;SDS011;10137;49.406;19.484;2023-04-24T12:42:26;7.40;;;5.63;;
19951;SDS011;10137;49.406;19.484;2023-04-24T12:44:56;7.67;;;5.27;;
19951;SDS011;10137;49.406;19.484;2023-04-24T12:47:26;5.67;;;5.13;;
19951;SDS011;10137;49.406;19.484;2023-04-24T12:49:59;6.93;;;4.83;;
19951;SDS011;10137;49.406;19.484;2023-04-24T12:52:28;6.67;;;5.80;;
19951;SDS011;10137;49.406;19.484;2023-04-24T12:54:58;6.87;;;5.80;;
19951;SDS011;10137;49.406;19.484;2023-04-24T12:57:27;8.93;;;6.90;;
19951;SDS011;10137;49.406;19.484;2023-04-24T12:59:57;7.63;;;6.40;;
19951;SDS011;10137;49.406;19.484;2023-04-24T13:02:27;5.33;;;4.77;;
19951;SDS011;10137;49.406;19.484;2023-04-24T13:04:57;8.40;;;6.43;;
19951;SDS011;10137;49.406;19.484;2023-04-24T13:07:28;7.00;;;5.47;;
19951;SDS011;10137;49.406;19.484;2023-04-24T13:09:56;6.10;;;5.50;;
19951;SDS011;10137;49.406;19.484;2023-04-24T13:12:24;7.87;;;5.63;;
19951;SDS011;10137;49.406;19.484;2023-04-24T13:14:52;13.10;;;9.30;;
19951;SDS011;10137;49.406;19.484;2023-04-24T13:17:22;12.03;;;8.50;;
19951;SDS011;10137;49.406;19.484;2023-04-24T13:19:49;11.90;;;7.50;;
19951;SDS011;10137;49.406;19.484;2023-04-24T13:22:23;7.87;;;6.33;;
19951;SDS011;10137;49.406;19.484;2023-04-24T13:24:54;5.40;;;4.80;;
19951;SDS011;10137;49.406;19.484;2023-04-24T13:27:22;5.47;;;4.70;;
19951;SDS011;10137;49.406;19.484;2023-04-24T13:29:50;8.60;;;5.87;;
19951;SDS011;10137;49.406;19.484;2023-04-24T13:32:19;37.07;;;21.17;;
19951;SDS011;10137;49.406;19.484;2023-04-24T13:34:47;36.80;;;20.73;;
19951;SDS011;10137;49.406;19.484;2023-04-24T13:37:15;65.97;;;33.47;;
19951;SDS011;10137;49.406;19.484;2023-04-24T13:39:48;45.00;;;23.90;;
19951;SDS011;10137;49.406;19.484;2023-04-24T13:42:15;34.30;;;18.90;;
19951;SDS011;10137;49.406;19.484;2023-04-24T13:44:43;44.57;;;23.47;;
19951;SDS011;10137;49.406;19.484;2023-04-24T13:47:13;34.77;;;19.40;;
19951;SDS011;10137;49.406;19.484;2023-04-24T13:49:40;22.60;;;14.10;;
19951;SDS011;10137;49.406;19.484;2023-04-24T13:52:08;22.47;;;14.57;;
19951;SDS011;10137;49.406;19.484;2023-04-24T13:54:37;26.47;;;19.00;;
19951;SDS011;10137;49.406;19.484;2023-04-24T13:57:07;21.03;;;15.37;;
19951;SDS011;10137;49.406;19.484;2023-04-24T13:59:35;20.90;;;12.97;;
19951;SDS011;10137;49.406;19.484;2023-04-24T14:02:03;12.50;;;9.60;;
19951;SDS011;10137;49.406;19.484;2023-04-24T14:04:31;13.80;;;8.83;;
19951;SDS011;10137;49.406;19.484;2023-04-24T14:06:59;21.20;;;12.37;;
19951;SDS011;10137;49.406;19.484;2023-04-24T14:09:27;27.37;;;17.77;;
19951;SDS011;10137;49.406;19.484;2023-04-24T14:11:54;24.87;;;16.23;;
19951;SDS011;10137;49.406;19.484;2023-04-24T14:14:25;23.47;;;16.40;;
19951;SDS011;10137;49.406;19.484;2023-04-24T14:16:52;25.30;;;17.03;;
19951;SDS011;10137;49.406;19.484;2023-04-24T14:19:24;25.03;;;16.90;;
19951;SDS011;10137;49.406;19.484;2023-04-24T14:21:53;32.43;;;19.60;;
19951;SDS011;10137;49.406;19.484;2023-04-24T14:24:23;31.57;;;22.00;;
19951;SDS011;10137;49.406;19.484;2023-04-24T14:26:50;28.43;;;19.27;;
19951;SDS011;10137;49.406;19.484;2023-04-24T14:29:21;36.17;;;21.27;;
19951;SDS011;10137;49.406;19.484;2023-04-24T14:31:58;27.50;;;17.20;;
19951;SDS011;10137;49.406;19.484;2023-04-24T14:34:25;20.47;;;13.57;;
19951;SDS011;10137;49.406;19.484;2023-04-24T14:36:54;28.17;;;17.80;;
19951;SDS011;10137;49.406;19.484;2023-04-24T14:39:29;31.90;;;22.23;;
19951;SDS011;10137;49.406;19.484;2023-04-24T14:41:59;24.83;;;14.67;;
19951;SDS011;10137;49.406;19.484;2023-04-24T14:44:27;60.57;;;32.37;;